Latest Weather Observations for Bairnsdale

IDV60801

Issued at 7:12 am EDT Monday 18 November 2019 (issued every 10 minutes, with the page automatically refreshed every 10 minutes)

About weather observations | Map of weather stations | Latest weather observations for VIC | Other Formats
Station Details ID: 085279 Name: BAIRNSDALE AIRPORT Lat: -37.88 Lon: 147.57 Height: 49.4 m
Data from the previous 72 hours. | See also: Recent months at Bairnsdale
Date/Time
EDT
Temp
°C
App
Temp
°C
Dew
Point
°C
Rel
Hum
%
Delta-T
°C
Wind Press
QNH
hPa
Press
MSL
hPa
Rain since
9am
mm
Dir  Spd
km/h
Gust
km/h
Spd
kts
Gust
kts
18/07:00am 8.0 5.4 6.3 89 0.8 WNW 9 13 5 7 1017.6 1017.5 0.0
18/06:30am 6.0 3.5 4.6 91 0.6 NW 7 9 4 5 1017.6 1017.5 0.0
18/06:00am 5.5 2.5 4.2 91 0.6 WNW 9 11 5 6 1017.5 1017.4 0.0
18/05:30am 5.8 2.9 4.4 91 0.6 NW 9 11 5 6 1017.3 1017.2 0.0
18/05:00am 5.7 2.7 4.3 91 0.6 NW 9 11 5 6 1017.2 1017.1 0.0
18/04:30am 5.9 3.0 4.5 91 0.6 NW 9 13 5 7 1017.1 1017.0 0.0
18/04:00am 5.9 3.0 4.4 90 0.6 NW 9 11 5 6 1017.3 1017.2 0.0
18/03:30am 6.1 3.6 4.6 90 0.6 WSW 7 9 4 5 1017.5 1017.4 0.0
18/03:00am 5.9 3.3 4.2 89 0.7 SW 7 9 4 5 1017.7 1017.6 0.0
18/02:30am 6.4 4.0 4.2 86 0.9 WNW 6 7 3 4 1018.1 1018.0 0.0
18/02:00am 9.0 6.8 6.3 83 1.2 N 7 9 4 5 1018.3 1018.2 0.0
18/01:30am 8.3 6.0 5.9 85 1.1 N 7 9 4 5 1018.7 1018.6 0.0
18/01:00am 9.2 7.0 6.3 82 1.3 N 7 9 4 5 1019.2 1019.1 0.0
18/12:30am 9.3 7.1 6.4 82 1.3 N 7 9 4 5 1019.5 1019.5 0.0
18/12:00am 9.1 7.0 5.8 80 1.5 N 6 7 3 4 1020.3 1020.3 0.0
 
Date/Time
EDT
Temp
°C
App
Temp
°C
Dew
Point
°C
Rel
Hum
%
Delta-T
°C
Wind Press
QNH
hPa
Press
MSL
hPa
Rain since
9am
mm
Dir  Spd
km/h
Gust
km/h
Spd
kts
Gust
kts
17/11:30pm 9.8 6.9 6.3 79 1.6 N 11 15 6 8 1020.3 1020.3 0.0
17/11:00pm 9.2 6.9 5.8 79 1.5 N 7 9 4 5 1020.6 1020.6 0.0
17/10:30pm 10.1 7.5 6.1 76 1.9 NE 9 11 5 6 1020.8 1020.8 0.0
17/10:00pm 9.9 7.6 5.7 75 1.9 NE 7 9 4 5 1021.2 1021.2 0.0
17/09:30pm 10.5 7.8 5.7 72 2.2 ENE 9 11 5 6 1021.1 1021.1 0.0
17/09:00pm 10.7 8.0 5.5 70 2.4 NE 9 11 5 6 1021.1 1021.1 0.0
17/08:30pm 11.7 9.4 5.6 66 2.8 E 7 9 4 5 1020.9 1020.9 0.0
17/08:00pm 12.6 9.6 6.0 64 3.1 SSE 11 17 6 9 1020.5 1020.5 0.0
17/07:30pm 13.6 9.0 6.5 62 3.4 SSE 20 26 11 14 1020.2 1020.2 0.0
17/07:00pm 14.7 10.3 6.5 58 4.0 SSE 19 26 10 14 1019.9 1019.9 0.0
17/06:30pm 15.3 10.3 6.3 55 4.4 SSE 22 30 12 16 1019.5 1019.5 0.0
17/06:00pm 15.3 10.2 6.1 54 4.4 SSE 22 30 12 16 1019.1 1019.0 0.0
17/05:30pm 15.9 10.4 5.8 51 4.9 SSE 24 33 13 18 1018.9 1018.8 0.0
17/05:00pm 15.9 10.1 6.3 53 4.7 SSE 26 33 14 18 1018.8 1018.7 0.0
17/04:30pm 15.9 9.7 6.3 53 4.7 SE 28 35 15 19 1018.7 1018.6 0.0
17/04:00pm 16.7 11.3 6.2 50 5.1 SSE 24 32 13 17 1018.8 1018.7 0.0
17/03:30pm 16.5 11.1 6.3 51 5.0 SSE 24 30 13 16 1018.8 1018.7 0.0
17/03:00pm 16.7 11.5 7.1 53 4.8 SSE 24 33 13 18 1019.1 1019.0 0.0
17/02:30pm 16.7 11.6 7.6 55 4.6 SE 24 32 13 17 1018.9 1018.8 0.0
17/02:00pm 16.4 11.6 7.3 55 4.5 SSE 22 37 12 20 1019.1 1019.0 0.0
17/01:30pm 17.4 12.5 5.0 44 5.9 WSW 20 28 11 15 1019.5 1019.5 0.0
17/01:00pm 16.7 11.9 5.6 48 5.3 SW 20 30 11 16 1019.6 1019.6 0.0
17/12:30pm 16.7 11.9 5.6 48 5.4 SW 20 33 11 18 1019.8 1019.8 0.0
17/12:00pm 15.9 10.7 5.5 50 5.0 WSW 22 32 12 17 1020.1 1020.1 0.0
17/11:30am 16.7 11.1 5.6 48 5.4 WSW 24 33 13 18 1020.2 1020.2 0.0
17/11:00am 15.1 9.8 5.0 51 4.7 WSW 22 30 12 16 1020.1 1020.1 0.0
17/10:30am 15.5 10.0 3.9 46 5.4 W 22 33 12 18 1019.9 1019.9 0.0
17/10:00am 15.4 9.2 4.2 47 5.2 WSW 26 37 14 20 1019.9 1019.9 0.0
17/09:30am 14.4 8.1 3.8 49 4.8 WSW 26 39 14 21 1020.2 1020.2 0.0
17/09:00am 14.2 9.5 5.3 55 4.2 WSW 19 28 10 15 1020.1 1020.1 0.0
17/08:30am 13.2 7.7 6.1 62 3.4 WSW 24 33 13 18 1020.0 1020.0 0.0
17/08:00am 13.4 8.8 6.5 63 3.3 WSW 20 32 11 17 1019.7 1019.7 0.0
17/07:30am 12.4 7.4 6.5 67 2.8 WSW 22 32 12 17 1019.5 1019.5 0.0
17/07:00am 11.6 7.9 6.3 70 2.5 WSW 15 20 8 11 1019.1 1019.0 0.0
17/06:30am 11.5 7.0 6.2 70 2.5 WSW 19 24 10 13 1018.7 1018.6 0.0
17/06:00am 10.6 7.6 5.8 72 2.2 WSW 11 17 6 9 1018.5 1018.4 0.0
17/05:30am 10.7 7.2 5.5 70 2.4 WSW 13 19 7 10 1018.1 1018.0 0.0
17/05:00am 11.3 5.7 5.6 68 2.6 WSW 24 32 13 17 1017.8 1017.7 0.0
17/04:30am 10.7 6.0 5.9 72 2.2 W 20 32 11 17 1017.7 1017.6 0.0
17/04:00am 10.5 6.3 5.7 72 2.2 W 17 22 9 12 1017.7 1017.6 0.0
17/03:30am 10.8 6.6 5.6 70 2.4 W 17 24 9 13 1017.7 1017.6 0.0
17/03:00am 11.0 7.6 5.7 70 2.4 W 13 19 7 10 1017.9 1017.8 0.0
17/02:30am 11.1 7.7 6.0 71 2.4 WSW 13 17 7 9 1018.0 1017.9 0.0
17/02:00am 11.3 7.5 6.0 70 2.5 WSW 15 22 8 12 1018.0 1017.9 0.0
17/01:30am 11.0 8.0 6.0 71 2.3 W 11 17 6 9 1018.2 1018.1 0.0
17/01:00am 11.5 8.2 6.2 70 2.5 W 13 20 7 11 1018.4 1018.3 0.0
17/12:30am 11.6 7.1 6.3 70 2.5 WSW 19 28 10 15 1018.6 1018.5 0.0
17/12:00am 11.6 6.9 6.1 69 2.6 WSW 20 32 11 17 1018.5 1018.4 0.0
 
Date/Time
EDT
Temp
°C
App
Temp
°C
Dew
Point
°C
Rel
Hum
%
Delta-T
°C
Wind Press
QNH
hPa
Press
MSL
hPa
Rain since
9am
mm
Dir  Spd
km/h
Gust
km/h
Spd
kts
Gust
kts
16/11:30pm 11.9 7.3 5.8 66 2.9 W 19 28 10 15 1018.5 1018.4 0.0
16/11:00pm 12.3 7.8 5.9 65 3.0 WSW 19 26 10 14 1018.6 1018.5 0.0
16/10:30pm 12.4 8.3 6.0 65 3.0 WSW 17 22 9 12 1018.4 1018.3 0.0
16/10:00pm 12.8 9.0 5.9 63 3.2 WSW 15 28 8 15 1018.4 1018.3 0.0
16/09:30pm 13.2 8.9 5.4 59 3.7 WSW 17 26 9 14 1017.8 1017.7 0.0
16/09:00pm 13.5 9.9 5.2 57 3.9 WSW 13 20 7 11 1017.3 1017.2 0.0
16/08:30pm 14.0 10.4 4.9 54 4.2 WSW 13 20 7 11 1016.9 1016.8 0.0
16/08:00pm 14.3 9.9 4.9 53 4.4 WSW 17 22 9 12 1016.8 1016.7 0.0
16/07:30pm 14.9 10.0 4.9 51 4.7 SW 20 30 11 16 1016.9 1016.8 0.0
16/07:00pm 15.3 9.1 4.4 48 5.1 SW 26 33 14 18 1016.7 1016.6 0.0
16/06:30pm 15.9 9.5 3.0 42 5.9 SW 26 41 14 22 1016.4 1016.3 0.0
16/06:00pm 16.3 9.0 2.7 40 6.2 SW 30 44 16 24 1016.2 1016.1 0.0
16/05:30pm 18.3 10.1 2.6 35 7.2 SW 35 46 19 25 1015.9 1015.8 0.0
16/05:00pm 18.2 10.0 2.5 35 7.2 SW 35 48 19 26 1015.7 1015.6 0.0
16/04:30pm 19.3 11.9 3.9 36 7.3 SW 32 43 17 23 1015.4 1015.3 0.0
16/04:05pm 18.0 11.4 4.2 40 6.5 SW 28 46 15 25 1015.4 1015.3 0.0
16/04:00pm 18.1 11.4 3.9 39 6.7 SW 28 43 15 23 1015.4 1015.3 0.0
16/03:35pm 18.7 11.6 3.7 37 7.1 SW 30 48 16 26 1015.4 1015.3 0.0
16/03:30pm 19.1 12.5 4.1 37 7.2 SW 28 39 15 21 1015.4 1015.3 0.0
16/03:08pm 19.1 12.3 3.3 35 7.4 WSW 28 46 15 25 1015.4 1015.3 0.0
16/03:00pm 19.3 12.6 3.9 36 7.3 SW 28 39 15 21 1015.4 1015.3 0.0
16/02:30pm 18.0 11.1 4.6 41 6.4 SSW 30 41 16 22 1015.9 1015.8 0.0
16/02:00pm 18.3 11.6 3.4 37 7.0 SW 28 46 15 25 1016.0 1015.9 0.0
16/01:54pm 18.5 12.5 3.6 37 7.0 WSW 24 46 13 25 1016.0 1015.9 0.0
16/01:30pm 18.1 11.4 3.6 38 6.8 WSW 28 43 15 23 1016.3 1016.2 0.0
16/01:00pm 17.2 9.9 2.4 37 6.7 WSW 30 44 16 24 1016.5 1016.4 0.0
16/12:30pm 17.6 9.9 2.4 36 6.9 SW 32 52 17 28 1016.7 1016.6 0.0
16/12:25pm 17.3 10.1 2.9 38 6.6 SW 30 52 16 28 1016.6 1016.5 0.0
16/12:00pm 16.8 9.9 2.8 39 6.4 WSW 28 41 15 22 1017.0 1016.9 0.0
16/11:30am 17.2 10.9 3.5 40 6.4 WSW 26 41 14 22 1017.1 1017.0 0.0
16/11:00am 15.1 8.4 1.6 40 5.9 W 26 37 14 20 1017.3 1017.2 0.0
16/10:30am 15.6 8.1 3.4 44 5.6 WSW 32 44 17 24 1017.3 1017.2 0.0
16/10:00am 15.0 9.0 3.5 46 5.2 WSW 24 37 13 20 1017.4 1017.3 0.0
16/09:30am 14.4 8.4 3.5 48 4.9 W 24 41 13 22 1017.4 1017.3 0.0
16/09:00am 13.5 7.1 3.3 50 4.6 WSW 26 37 14 20 1017.3 1017.2 0.0
16/08:30am 13.3 6.7 4.2 54 4.2 WSW 28 37 15 20 1017.1 1017.0 0.0
16/08:00am 12.7 5.6 3.6 54 4.1 WSW 30 39 16 21 1017.1 1017.0 0.0
16/07:30am 11.9 6.3 3.7 57 3.7 W 22 32 12 17 1016.8 1016.7 0.0
16/07:00am 11.3 5.8 3.8 60 3.3 W 22 33 12 18 1016.7 1016.6 0.0
16/06:30am 10.7 4.8 3.7 62 3.1 W 24 37 13 20 1016.3 1016.2 0.0
16/06:00am 10.0 4.8 3.7 65 2.8 WSW 20 30 11 16 1016.1 1016.0 0.0
16/05:30am 10.1 4.9 3.8 65 2.8 WSW 20 30 11 16 1015.6 1015.5 0.0
16/05:00am 9.9 5.4 4.3 68 2.5 WSW 17 24 9 13 1015.4 1015.3 0.0
16/04:30am 10.7 4.9 4.4 65 2.8 WSW 24 35 13 19 1015.2 1015.1 0.0
16/04:00am 11.0 4.6 5.1 67 2.7 WSW 28 43 15 23 1015.0 1014.9 0.0
16/03:30am 10.7 5.1 5.3 69 2.5 WSW 24 35 13 19 1014.9 1014.8 0.0
16/03:00am 10.9 3.8 5.7 70 2.4 WSW 32 41 17 22 1014.7 1014.6 0.0
16/02:30am 11.1 5.2 6.0 71 2.4 WSW 26 35 14 19 1014.9 1014.8 0.0
16/02:00am 11.3 6.1 5.6 68 2.6 WSW 22 32 12 17 1015.0 1014.9 0.0
16/01:30am 10.9 4.6 5.7 70 2.4 WSW 28 39 15 21 1015.0 1014.9 0.0
16/01:00am 11.2 5.3 5.7 69 2.5 WSW 26 33 14 18 1015.0 1014.9 0.0
16/12:30am 11.2 7.0 5.5 68 2.6 WSW 17 24 9 13 1015.1 1015.0 0.0
16/12:00am 11.0 6.2 4.7 65 2.9 WSW 19 24 10 13 1015.0 1014.9 0.0
 
Date/Time
EDT
Temp
°C
App
Temp
°C
Dew
Point
°C
Rel
Hum
%
Delta-T
°C
Wind Press
QNH
hPa
Press
MSL
hPa
Rain since
9am
mm
Dir  Spd
km/h
Gust
km/h
Spd
kts
Gust
kts
15/11:30pm 11.3 4.4 4.7 64 3.0 WSW 30 44 16 24 1014.7 1014.6 0.0
15/11:00pm 11.5 4.2 5.4 66 2.8 SW 33 44 18 24 1014.3 1014.2 0.0
15/10:30pm 11.9 5.9 5.5 65 3.0 SW 26 41 14 22 1014.0 1013.9 0.0
15/10:00pm 12.8 6.0 5.2 60 3.5 WSW 30 44 16 24 1013.9 1013.8 0.0
15/09:30pm 13.0 5.9 5.4 60 3.6 WSW 32 44 17 24 1013.4 1013.3 0.0
15/09:00pm 13.3 6.2 5.5 59 3.7 WSW 32 43 17 23 1012.8 1012.7 0.0
15/08:30pm 13.1 4.7 5.5 60 3.6 WSW 39 59 21 32 1012.3 1012.2 0.0
15/08:00pm 13.8 4.0 5.2 56 4.0 WSW 46 65 25 35 1011.4 1011.3 0.0
15/07:32pm 14.1 4.2 6.7 61 3.6 SW 48 67 26 36 1010.9 1010.8 0.0
15/07:30pm 14.2 4.4 7.0 62 3.5 SW 48 63 26 34 1010.8 1010.7 0.0
15/07:18pm 14.7 6.0 7.5 62 3.6 WSW 43 63 23 34 1010.5 1010.4 0.0
15/07:00pm 15.1 6.6 8.6 65 3.3 WSW 43 59 23 32 1009.9 1009.8 0.0
15/06:30pm 17.0 9.2 8.4 57 4.4 SW 39 56 21 30 1008.8 1008.7 0.0
15/06:00pm 18.1 9.2 9.2 56 4.7 WSW 46 59 25 32 1008.0 1008.0 0.0
15/05:37pm 18.3 9.8 9.1 55 4.8 WSW 44 63 24 34 1007.6 1007.6 0.0
15/05:30pm 18.0 9.4 8.3 53 5.0 WSW 43 56 23 30 1007.5 1007.5 0.0
15/05:00pm 19.6 11.1 7.0 44 6.4 SW 41 61 22 33 1006.9 1006.9 0.0
15/04:30pm 21.2 11.8 5.6 36 7.8 SW 44 63 24 34 1006.3 1006.3 0.0
15/04:04pm 21.2 12.5 4.3 33 8.2 SW 39 57 21 31 1006.3 1006.3 0.0
15/04:00pm 21.6 13.6 5.5 35 8.1 WSW 37 52 20 28 1006.4 1006.4 0.0
15/03:35pm 21.3 11.8 4.8 34 8.1 WSW 44 63 24 34 1006.3 1006.3 0.0
15/03:30pm 21.6 11.8 5.1 34 8.2 SW 46 61 25 33 1006.4 1006.4 0.0
15/03:06pm 20.8 12.4 5.6 37 7.6 SW 39 59 21 32 1006.4 1006.4 0.0
15/03:00pm 20.7 12.1 6.6 40 7.2 SW 41 50 22 27 1006.5 1006.5 0.0
15/02:30pm 21.1 12.4 5.9 37 7.6 WSW 41 50 22 27 1006.5 1006.5 0.0
15/02:00pm 20.1 11.3 5.4 38 7.3 SW 41 54 22 29 1006.5 1006.5 0.0
15/01:48pm 20.2 11.3 5.1 37 7.4 SW 41 59 22 32 1006.4 1006.4 0.0
15/01:30pm 20.3 11.5 5.5 38 7.3 SW 41 52 22 28 1006.6 1006.6 0.0
15/01:18pm 20.4 12.4 5.6 38 7.3 SW 37 56 20 30 1006.6 1006.6 0.0
15/01:00pm 19.8 11.8 5.5 39 7.1 WSW 37 48 20 26 1006.7 1006.7 0.0
15/12:30pm 20.5 13.4 6.5 40 7.1 SW 33 44 18 24 1007.0 1007.0 0.0
15/12:00pm 22.1 16.9 7.1 38 7.8 WSW 24 39 13 21 1007.3 1007.3 0.0
15/11:30am 20.8 15.0 6.4 39 7.3 WSW 26 39 14 21 1007.6 1007.6 0.0
15/11:00am 20.2 14.8 6.5 41 6.9 SW 24 37 13 20 1007.6 1007.6 0.0
15/10:30am 19.4 14.2 7.2 45 6.2 W 24 41 13 22 1008.0 1008.0 0.0
15/10:00am 19.1 13.6 7.5 47 5.9 WSW 26 35 14 19 1008.3 1008.3 0.0
15/09:30am 17.2 12.0 7.3 52 5.0 WSW 24 32 13 17 1008.6 1008.5 0.0
15/09:00am 16.2 10.2 7.2 55 4.5 WSW 28 37 15 20 1008.7 1008.6 0.0
15/08:30am 16.0 11.4 8.0 59 4.0 WSW 22 32 12 17 1009.0 1008.9 0.0
15/08:00am 14.6 9.9 7.9 64 3.3 W 22 30 12 16 1009.0 1008.9 0.0
15/07:30am 13.6 10.5 8.9 73 2.4 WSW 15 26 8 14 1009.0 1008.9 0.0

Other formats

Comma delimited format used in spreadsheet applications
http://www.bom.gov.au/fwo/IDV60801/IDV60801.94912.axf

JavaScript Object Notation format (JSON) in row-major order
http://www.bom.gov.au/fwo/IDV60801/IDV60801.94912.json

Data quality

Most of these data are generated automatically and are frequently updated. Quality checks on data are not normally performed. It is possible for incorrect values to appear. Refer to information at About Latest Weather Observations and please check the disclaimer before using these data.